createdAt,value
2023-05-24T00:02:09.275Z,30.77
2023-05-24T00:04:36.173Z,30.37
2023-05-24T00:07:07.982Z,26.80
2023-05-24T00:09:34.923Z,32.30
2023-05-24T00:12:01.962Z,23.43
2023-05-24T00:14:28.831Z,32.40
2023-05-24T00:16:56.075Z,33.40
2023-05-24T00:19:23.226Z,28.43
2023-05-24T00:21:50.327Z,39.17
2023-05-24T00:24:17.736Z,33.20
2023-05-24T00:26:45.081Z,27.73
2023-05-24T00:29:12.240Z,26.77
2023-05-24T00:31:39.335Z,30.93
2023-05-24T00:34:06.954Z,36.63
2023-05-24T00:36:34.185Z,27.30
2023-05-24T00:39:01.214Z,30.17
2023-05-24T00:41:28.409Z,27.43
2023-05-24T00:43:55.466Z,35.93
2023-05-24T00:46:28.141Z,32.37
2023-05-24T00:48:56.524Z,31.77
2023-05-24T00:51:24.306Z,29.47
2023-05-24T00:53:51.364Z,25.30
2023-05-24T00:56:18.523Z,25.40
2023-05-24T00:58:46.166Z,32.77
2023-05-24T01:01:14.610Z,31.60
2023-05-24T01:03:42.026Z,26.23
2023-05-24T01:06:09.499Z,26.07
2023-05-24T01:08:39.838Z,30.90
2023-05-24T01:11:14.371Z,27.50
2023-05-24T01:13:52.683Z,34.03
2023-05-24T01:16:51.927Z,25.67
2023-05-24T01:19:37.397Z,28.27
2023-05-24T01:22:27.605Z,25.20
2023-05-24T01:25:19.640Z,34.73
2023-05-24T01:27:48.108Z,25.63
2023-05-24T01:30:16.061Z,27.57
2023-05-24T01:32:43.150Z,27.53
2023-05-24T01:35:10.204Z,30.37
2023-05-24T01:37:37.258Z,29.97
2023-05-24T01:40:04.777Z,26.50
2023-05-24T01:43:19.059Z,27.33
2023-05-24T01:46:13.521Z,28.27
2023-05-24T01:49:03.611Z,31.40
2023-05-24T01:51:40.620Z,32.00
2023-05-24T01:54:09.123Z,20.93
2023-05-24T01:56:37.097Z,24.60
2023-05-24T01:59:06.591Z,32.53
2023-05-24T02:01:34.435Z,32.23
2023-05-24T02:04:01.993Z,28.20
2023-05-24T02:06:28.984Z,24.73
2023-05-24T02:08:56.198Z,22.97
2023-05-24T02:11:23.321Z,34.40
2023-05-24T02:13:50.189Z,21.97
2023-05-24T02:16:18.577Z,21.30
2023-05-24T02:18:47.139Z,21.43
2023-05-24T02:21:14.208Z,20.57
2023-05-24T02:23:41.309Z,26.93
2023-05-24T02:26:11.748Z,24.53
2023-05-24T02:28:38.577Z,26.80
2023-05-24T02:31:06.429Z,28.97
2023-05-24T02:33:33.973Z,23.47
2023-05-24T02:36:01.421Z,31.50
2023-05-24T02:38:28.296Z,28.93
2023-05-24T02:40:55.567Z,30.67
2023-05-24T02:43:22.602Z,23.80
2023-05-24T02:45:49.607Z,23.47
2023-05-24T02:48:16.552Z,28.67
2023-05-24T02:50:43.796Z,24.83
2023-05-24T02:53:10.739Z,27.77
2023-05-24T02:55:37.682Z,28.63
2023-05-24T02:58:04.579Z,30.47
2023-05-24T03:00:31.680Z,22.77
2023-05-24T03:03:02.857Z,27.57
2023-05-24T03:05:29.756Z,29.03
2023-05-24T03:07:56.912Z,28.90
2023-05-24T03:10:23.844Z,28.03
2023-05-24T03:12:50.988Z,24.27
2023-05-24T03:15:18.063Z,29.20
2023-05-24T03:17:45.072Z,21.23
2023-05-24T03:20:12.131Z,33.00
2023-05-24T03:22:39.284Z,36.67
2023-05-24T03:25:08.889Z,29.73
2023-05-24T03:27:36.834Z,27.60
2023-05-24T03:30:09.125Z,27.23
2023-05-24T03:32:36.264Z,28.47
2023-05-24T03:35:03.566Z,32.50
2023-05-24T03:37:30.558Z,33.50
2023-05-24T03:39:57.368Z,30.03
2023-05-24T03:42:24.140Z,30.20
2023-05-24T03:44:51.023Z,25.57
2023-05-24T03:47:18.058Z,30.03
2023-05-24T03:49:44.877Z,28.53
2023-05-24T03:52:12.280Z,35.87
2023-05-24T03:54:39.300Z,31.17
2023-05-24T03:57:07.524Z,33.17
2023-05-24T03:59:38.749Z,30.13
2023-05-24T04:02:07.475Z,35.60
2023-05-24T04:04:34.374Z,30.67
2023-05-24T04:07:01.388Z,30.17
2023-05-24T04:09:28.311Z,32.87
2023-05-24T04:11:55.352Z,28.93
2023-05-24T04:14:22.556Z,31.17
2023-05-24T04:16:49.563Z,35.23
2023-05-24T04:19:16.548Z,26.57
2023-05-24T04:21:43.664Z,32.30
2023-05-24T04:24:10.723Z,36.90
2023-05-24T04:26:38.114Z,29.47
2023-05-24T04:29:04.973Z,31.50
2023-05-24T04:31:33.764Z,36.90
2023-05-24T04:34:00.947Z,31.70
2023-05-24T04:36:29.129Z,32.03
2023-05-24T04:38:57.839Z,35.80
2023-05-24T04:41:24.736Z,40.47
2023-05-24T04:43:51.898Z,38.10
2023-05-24T04:46:18.811Z,34.30
2023-05-24T04:48:45.938Z,35.80
2023-05-24T04:51:13.074Z,32.43
2023-05-24T04:53:40.033Z,33.47
2023-05-24T04:56:07.046Z,37.83
2023-05-24T04:58:36.277Z,41.37
2023-05-24T05:01:04.525Z,33.70
2023-05-24T05:03:31.742Z,37.30
2023-05-24T05:05:59.869Z,32.17
2023-05-24T05:08:26.832Z,38.23
2023-05-24T05:10:54.059Z,34.30
2023-05-24T05:13:21.185Z,40.43
2023-05-24T05:15:48.140Z,39.07
2023-05-24T05:18:16.418Z,34.37
2023-05-24T05:20:43.861Z,33.73
2023-05-24T05:23:10.929Z,31.97
2023-05-24T05:25:37.976Z,37.47
2023-05-24T05:28:05.042Z,36.43
2023-05-24T05:30:31.950Z,30.63
2023-05-24T05:32:59.370Z,43.40
2023-05-24T05:35:26.563Z,35.30
2023-05-24T05:37:53.547Z,26.73
2023-05-24T05:40:20.420Z,36.47
2023-05-24T05:42:47.939Z,35.40
2023-05-24T05:45:15.034Z,27.77
2023-05-24T05:47:43.447Z,34.13
2023-05-24T05:50:10.796Z,43.60
2023-05-24T05:52:37.788Z,34.13
2023-05-24T05:55:05.450Z,31.10
2023-05-24T05:57:32.289Z,39.40
2023-05-24T05:59:58.981Z,37.37
2023-05-24T06:02:26.057Z,26.43
2023-05-24T06:04:53.062Z,31.57
2023-05-24T06:07:20.417Z,38.80
2023-05-24T06:09:47.421Z,48.40
2023-05-24T06:12:14.282Z,30.83
2023-05-24T06:14:41.148Z,37.67
2023-05-24T06:17:08.161Z,41.83
2023-05-24T06:19:35.389Z,32.23
2023-05-24T06:22:02.408Z,35.50
2023-05-24T06:24:34.520Z,27.00
2023-05-24T06:27:04.597Z,33.13
2023-05-24T06:29:32.540Z,30.10
2023-05-24T06:31:59.639Z,39.67
2023-05-24T06:34:26.557Z,33.07
2023-05-24T06:36:53.535Z,43.67
2023-05-24T06:39:21.124Z,39.40
2023-05-24T06:41:48.367Z,31.47
2023-05-24T06:44:19.274Z,41.07
2023-05-24T06:46:46.754Z,43.43
2023-05-24T06:49:13.831Z,30.90
2023-05-24T06:51:40.814Z,37.17
2023-05-24T06:54:08.196Z,35.07
2023-05-24T06:56:35.348Z,36.93
2023-05-24T06:59:02.485Z,37.73
2023-05-24T07:01:29.901Z,42.23
2023-05-24T07:03:57.184Z,37.20
2023-05-24T07:06:25.376Z,29.77
2023-05-24T07:08:52.406Z,36.83
2023-05-24T07:11:19.477Z,43.43
2023-05-24T07:13:46.472Z,39.67
2023-05-24T07:16:13.472Z,36.30
2023-05-24T07:18:41.961Z,42.07
2023-05-24T07:21:09.194Z,39.00
2023-05-24T07:23:37.233Z,36.07
2023-05-24T07:26:05.037Z,42.77
2023-05-24T07:28:32.499Z,32.87
2023-05-24T07:30:59.371Z,44.43
2023-05-24T07:33:26.585Z,29.80
2023-05-24T07:35:54.205Z,33.70
2023-05-24T07:38:21.371Z,35.63
2023-05-24T07:40:48.456Z,27.23
2023-05-24T07:43:15.932Z,33.70
2023-05-24T07:45:43.159Z,30.73
2023-05-24T07:48:10.378Z,28.67
2023-05-24T07:50:37.575Z,31.27
2023-05-24T07:53:05.639Z,33.67
2023-05-24T07:55:32.588Z,31.37
2023-05-24T07:57:59.538Z,45.67
2023-05-24T08:00:27.130Z,29.00
2023-05-24T08:02:57.313Z,33.00
2023-05-24T08:05:24.648Z,35.10
2023-05-24T08:07:51.783Z,43.87
2023-05-24T08:10:18.871Z,30.80
2023-05-24T08:12:45.923Z,27.50
2023-05-24T08:15:15.828Z,32.67
2023-05-24T08:17:43.198Z,26.83
2023-05-24T08:20:10.409Z,22.47
2023-05-24T08:22:38.109Z,25.07
2023-05-24T08:25:06.403Z,29.97
2023-05-24T08:27:33.166Z,27.50
2023-05-24T08:30:00.107Z,29.97
2023-05-24T08:32:27.271Z,24.07
2023-05-24T08:35:03.601Z,29.07
2023-05-24T08:37:38.361Z,16.17
2023-05-24T08:40:05.799Z,23.23
2023-05-24T08:42:32.983Z,21.23
2023-05-24T08:45:05.883Z,22.23
2023-05-24T08:47:33.741Z,22.10
2023-05-24T08:50:01.674Z,17.90
2023-05-24T08:52:30.218Z,22.47
2023-05-24T08:54:58.905Z,20.43
2023-05-24T08:57:31.088Z,22.27
2023-05-24T08:59:58.074Z,18.53
2023-05-24T09:02:25.047Z,20.73
2023-05-24T09:04:53.718Z,18.33
2023-05-24T09:07:25.905Z,18.47
2023-05-24T09:10:08.326Z,20.43
2023-05-24T09:12:39.097Z,22.70
2023-05-24T09:15:08.901Z,24.07
2023-05-24T09:17:39.266Z,21.43
2023-05-24T09:20:10.500Z,15.67
2023-05-24T09:22:41.196Z,25.50
2023-05-24T09:25:11.391Z,23.60
2023-05-24T09:27:39.381Z,22.40
2023-05-24T09:30:11.022Z,16.50
2023-05-24T09:32:38.330Z,23.77
2023-05-24T09:35:09.966Z,21.50
2023-05-24T09:37:39.158Z,20.60
2023-05-24T09:40:07.366Z,21.37
2023-05-24T09:42:34.394Z,24.07
2023-05-24T09:45:09.284Z,19.43
2023-05-24T09:47:38.146Z,23.20
2023-05-24T09:50:07.392Z,23.07
2023-05-24T09:52:38.502Z,21.83
2023-05-24T09:55:12.944Z,24.20
2023-05-24T09:57:39.977Z,22.10
2023-05-24T10:00:14.901Z,28.43
2023-05-24T10:02:52.270Z,22.67
2023-05-24T10:05:21.361Z,25.03
2023-05-24T10:07:48.850Z,20.33
2023-05-24T10:10:16.223Z,19.63
2023-05-24T10:12:47.143Z,26.07
2023-05-24T10:15:14.224Z,21.40
2023-05-24T10:17:44.771Z,22.83
2023-05-24T10:20:15.687Z,20.20
2023-05-24T10:23:21.120Z,20.03
2023-05-24T10:26:08.812Z,19.40
2023-05-24T10:28:49.052Z,18.97
2023-05-24T10:31:23.129Z,14.83
2023-05-24T10:33:52.240Z,14.20
2023-05-24T10:36:19.710Z,14.60
2023-05-24T10:38:47.400Z,17.90
2023-05-24T10:41:14.532Z,16.60
2023-05-24T10:44:00.755Z,14.37
2023-05-24T10:46:33.976Z,16.07
2023-05-24T10:49:01.736Z,10.00
2023-05-24T10:51:35.052Z,12.97
2023-05-24T10:54:25.215Z,13.37
2023-05-24T10:56:52.435Z,17.73
2023-05-24T10:59:31.418Z,14.83
2023-05-24T11:02:00.685Z,11.17
2023-05-24T11:04:32.603Z,14.07
2023-05-24T11:07:03.844Z,17.00
2023-05-24T11:09:31.937Z,16.83
2023-05-24T11:12:09.298Z,11.97
2023-05-24T11:14:40.417Z,14.77
2023-05-24T11:17:08.665Z,10.93
2023-05-24T11:19:37.526Z,19.63
2023-05-24T11:22:09.043Z,13.90
2023-05-24T11:24:36.616Z,14.77
2023-05-24T11:27:04.163Z,15.27
2023-05-24T11:29:31.206Z,15.07
2023-05-24T11:32:06.180Z,17.13
2023-05-24T11:34:34.610Z,15.37
2023-05-24T11:37:03.028Z,13.87
2023-05-24T11:39:34.526Z,16.47
2023-05-24T11:42:02.676Z,16.00
2023-05-24T11:44:32.039Z,13.33
2023-05-24T11:47:03.359Z,10.70
2023-05-24T11:49:30.495Z,13.97
2023-05-24T11:51:58.645Z,10.37
2023-05-24T11:54:28.960Z,8.73
2023-05-24T11:56:56.269Z,10.93
2023-05-24T11:59:25.700Z,11.50
2023-05-24T12:02:04.801Z,12.70
2023-05-24T12:04:33.517Z,10.27
2023-05-24T12:07:01.662Z,16.17
2023-05-24T12:09:28.927Z,12.23
2023-05-24T12:11:56.494Z,15.57
2023-05-24T12:14:27.253Z,14.10
2023-05-24T12:16:58.743Z,15.80
2023-05-24T12:19:33.477Z,14.60
2023-05-24T12:22:01.811Z,16.63
2023-05-24T12:24:28.926Z,11.57
2023-05-24T12:27:09.050Z,14.07
2023-05-24T12:29:38.028Z,15.43
2023-05-24T12:32:05.866Z,10.57
2023-05-24T12:34:33.102Z,11.70
2023-05-24T12:37:00.520Z,11.97
2023-05-24T12:39:32.093Z,13.67
2023-05-24T12:42:01.882Z,15.30
2023-05-24T12:44:34.888Z,19.30
2023-05-24T12:47:03.113Z,15.50
2023-05-24T12:49:31.768Z,17.03
2023-05-24T12:51:59.516Z,15.07
2023-05-24T12:54:28.284Z,16.80
2023-05-24T12:56:57.501Z,19.73
2023-05-24T12:59:26.289Z,14.60
2023-05-24T13:01:53.533Z,19.50
2023-05-24T13:04:22.716Z,18.20
2023-05-24T13:06:49.879Z,17.60
2023-05-24T13:09:22.048Z,22.47
2023-05-24T13:11:49.478Z,19.57
2023-05-24T13:14:17.098Z,21.57
2023-05-24T13:16:44.605Z,20.10
2023-05-24T13:19:12.622Z,24.03
2023-05-24T13:21:40.383Z,24.37
2023-05-24T13:24:07.982Z,22.87
2023-05-24T13:26:39.187Z,19.70
2023-05-24T13:31:41.366Z,23.30
2023-05-24T13:34:10.880Z,20.27
2023-05-24T13:36:40.756Z,20.87
2023-05-24T13:41:40.363Z,20.43
2023-05-24T13:44:07.509Z,28.60
2023-05-24T13:46:36.812Z,19.57
2023-05-24T13:49:04.656Z,16.73
2023-05-24T13:51:31.729Z,16.40
2023-05-24T13:53:59.223Z,17.67
2023-05-24T13:56:27.596Z,20.37
2023-05-24T13:58:54.420Z,19.30
2023-05-24T14:01:23.500Z,14.90
2023-05-24T14:03:50.729Z,17.03
2023-05-24T14:06:18.338Z,18.90
2023-05-24T14:08:46.914Z,17.43
2023-05-24T14:11:14.913Z,15.83
2023-05-24T14:16:13.102Z,12.77
2023-05-24T14:18:40.745Z,16.77
2023-05-24T14:21:07.883Z,17.33
2023-05-24T14:23:35.045Z,22.07
2023-05-24T14:26:02.497Z,17.10
2023-05-24T14:28:29.486Z,27.10
2023-05-24T14:30:56.591Z,16.10
2023-05-24T14:33:23.953Z,22.10
2023-05-24T14:35:51.940Z,21.23
2023-05-24T14:38:19.007Z,16.23
2023-05-24T14:40:48.451Z,12.07
2023-05-24T14:43:15.498Z,18.97
2023-05-24T14:45:43.239Z,20.97
2023-05-24T14:48:12.041Z,18.17
2023-05-24T14:50:41.135Z,15.90
2023-05-24T14:53:14.328Z,14.73
2023-05-24T14:55:43.194Z,16.57
2023-05-24T14:58:13.991Z,13.43
2023-05-24T15:00:42.778Z,15.90
2023-05-24T15:03:12.930Z,19.30
2023-05-24T15:05:41.550Z,17.47
2023-05-24T15:08:09.579Z,12.60
2023-05-24T15:10:36.501Z,14.97
2023-05-24T15:13:03.992Z,16.40
2023-05-24T15:15:31.591Z,15.63
2023-05-24T15:18:00.251Z,16.70
2023-05-24T15:20:27.509Z,16.07
2023-05-24T15:22:54.626Z,16.13
2023-05-24T15:25:21.743Z,19.50
2023-05-24T15:27:48.867Z,15.07
2023-05-24T15:30:17.663Z,16.33
2023-05-24T15:32:46.728Z,18.60
2023-05-24T15:35:14.023Z,15.63
2023-05-24T15:37:41.929Z,21.87
2023-05-24T15:40:12.214Z,16.10
2023-05-24T15:42:39.494Z,21.03
2023-05-24T15:45:07.382Z,16.70
2023-05-24T15:47:40.022Z,24.17
2023-05-24T15:50:08.821Z,19.57
2023-05-24T15:52:36.517Z,18.40
2023-05-24T15:55:04.119Z,19.13
2023-05-24T15:57:31.708Z,17.20
2023-05-24T15:59:58.687Z,15.93
2023-05-24T16:02:25.954Z,20.90
2023-05-24T16:04:53.283Z,19.17
2023-05-24T16:07:20.288Z,18.40
2023-05-24T16:09:47.132Z,19.17
2023-05-24T16:12:14.267Z,18.97
2023-05-24T16:14:41.256Z,23.23
2023-05-24T16:17:08.507Z,15.80
2023-05-24T16:19:35.556Z,18.80
2023-05-24T16:22:03.020Z,19.10
2023-05-24T16:24:30.093Z,19.93
2023-05-24T16:26:57.672Z,21.00
2023-05-24T16:29:24.891Z,23.50
2023-05-24T16:31:52.307Z,20.53
2023-05-24T16:34:19.406Z,22.30
2023-05-24T16:36:47.436Z,21.13
2023-05-24T16:39:14.484Z,22.13
2023-05-24T16:41:41.693Z,16.93
2023-05-24T16:44:09.173Z,17.43
2023-05-24T16:46:37.049Z,18.63
2023-05-24T16:49:04.259Z,17.90
2023-05-24T16:51:32.686Z,16.83
2023-05-24T16:53:59.713Z,18.90
2023-05-24T16:56:27.698Z,18.77
2023-05-24T16:58:54.977Z,14.70
2023-05-24T17:01:22.428Z,16.83
2023-05-24T17:03:49.487Z,14.97
2023-05-24T17:06:16.621Z,17.47
2023-05-24T17:08:43.606Z,15.53
2023-05-24T17:11:10.628Z,17.37
2023-05-24T17:13:37.695Z,19.10
2023-05-24T17:16:04.788Z,13.60
2023-05-24T17:18:31.702Z,19.50
2023-05-24T17:21:01.588Z,20.47
2023-05-24T17:23:31.185Z,13.57
2023-05-24T17:25:58.505Z,16.57
2023-05-24T17:28:29.328Z,17.83
2023-05-24T17:31:01.947Z,16.03
2023-05-24T17:33:30.918Z,20.63
2023-05-24T17:35:58.447Z,19.07
2023-05-24T17:38:26.038Z,18.30
2023-05-24T17:40:59.479Z,18.37
2023-05-24T17:43:33.995Z,16.30
2023-05-24T17:46:09.078Z,17.03
2023-05-24T17:48:37.566Z,17.73
2023-05-24T17:51:07.220Z,18.03
2023-05-24T17:53:35.653Z,16.33
2023-05-24T17:56:04.411Z,14.80
2023-05-24T17:58:36.651Z,14.97
2023-05-24T18:01:05.467Z,18.93
2023-05-24T18:03:38.472Z,17.77
2023-05-24T18:06:07.279Z,19.17
2023-05-24T18:08:37.474Z,19.10
2023-05-24T18:11:08.766Z,16.03
2023-05-24T18:13:37.532Z,16.97
2023-05-24T18:16:04.945Z,14.93
2023-05-24T18:18:33.128Z,18.57
2023-05-24T18:21:00.317Z,15.73
2023-05-24T18:23:27.429Z,14.63
2023-05-24T18:26:00.223Z,16.90
2023-05-24T18:28:28.939Z,19.03
2023-05-24T18:30:56.460Z,14.63
2023-05-24T18:33:26.236Z,16.27
2023-05-24T18:35:53.352Z,19.03
2023-05-24T18:38:20.172Z,13.40
2023-05-24T18:40:47.120Z,17.13
2023-05-24T18:43:14.445Z,19.70
2023-05-24T18:45:41.872Z,16.50
2023-05-24T18:48:09.168Z,18.53
2023-05-24T18:50:36.145Z,15.40
2023-05-24T18:53:03.087Z,17.30
2023-05-24T18:55:29.864Z,15.50
2023-05-24T18:57:56.764Z,17.60
2023-05-24T19:00:24.766Z,17.07
2023-05-24T19:02:51.896Z,17.07
2023-05-24T19:05:20.288Z,17.70
2023-05-24T19:07:47.464Z,20.63
2023-05-24T19:10:14.655Z,19.87
2023-05-24T19:12:41.725Z,22.73
2023-05-24T19:15:09.485Z,24.90
2023-05-24T19:17:36.414Z,22.97
2023-05-24T19:20:07.413Z,23.57
2023-05-24T19:22:34.453Z,18.93
2023-05-24T19:25:01.599Z,24.37
2023-05-24T19:27:28.538Z,20.50
2023-05-24T19:29:55.684Z,15.73
2023-05-24T19:32:22.873Z,26.77
2023-05-24T19:34:49.716Z,17.57
2023-05-24T19:37:16.632Z,30.43
2023-05-24T19:39:43.597Z,18.87
2023-05-24T19:42:12.080Z,20.43
2023-05-24T19:44:39.053Z,17.07
2023-05-24T19:47:06.407Z,21.83
2023-05-24T19:49:33.347Z,20.90
2023-05-24T19:52:00.229Z,22.63
2023-05-24T19:54:27.428Z,16.83
2023-05-24T19:56:56.340Z,18.83
2023-05-24T19:59:23.321Z,19.33
2023-05-24T20:01:50.583Z,22.57
2023-05-24T20:04:17.640Z,22.03
2023-05-24T20:06:44.658Z,16.70
2023-05-24T20:09:11.727Z,15.67
2023-05-24T20:11:38.801Z,18.00
2023-05-24T20:14:05.851Z,22.10
2023-05-24T20:16:33.101Z,19.00
2023-05-24T20:19:00.285Z,18.80
2023-05-24T20:21:27.402Z,20.23
2023-05-24T20:23:58.840Z,18.87
2023-05-24T20:26:28.005Z,17.93
2023-05-24T20:28:55.158Z,21.77
2023-05-24T20:31:22.200Z,24.60
2023-05-24T20:33:51.632Z,18.10
2023-05-24T20:36:18.892Z,20.73
2023-05-24T20:38:45.918Z,17.40
2023-05-24T20:41:13.041Z,21.70
2023-05-24T20:43:40.076Z,20.07
2023-05-24T20:46:07.372Z,17.43
2023-05-24T20:48:34.529Z,15.27
2023-05-24T20:51:01.380Z,18.30
2023-05-24T20:53:28.748Z,11.73
2023-05-24T20:55:56.884Z,18.50
2023-05-24T20:58:23.737Z,15.40
2023-05-24T21:00:51.894Z,14.67
2023-05-24T21:03:19.044Z,16.13
2023-05-24T21:05:46.141Z,14.20
2023-05-24T21:08:13.360Z,20.33
2023-05-24T21:10:40.283Z,12.07
2023-05-24T21:13:07.469Z,14.87
2023-05-24T21:15:35.574Z,18.53
2023-05-24T21:18:03.975Z,16.97
2023-05-24T21:20:30.982Z,12.87
2023-05-24T21:22:57.853Z,15.90
2023-05-24T21:27:51.626Z,16.87
2023-05-24T21:30:18.485Z,13.77
2023-05-24T21:32:45.482Z,15.10
2023-05-24T21:35:12.242Z,14.23
2023-05-24T21:37:39.075Z,14.37
2023-05-24T21:40:06.608Z,15.40
2023-05-24T21:42:33.492Z,13.33
2023-05-24T21:45:00.342Z,15.00
2023-05-24T21:47:27.261Z,16.97
2023-05-24T21:49:55.198Z,15.57
2023-05-24T21:52:22.318Z,13.30
2023-05-24T21:54:49.434Z,15.03
2023-05-24T21:57:16.325Z,15.70
2023-05-24T21:59:43.321Z,17.63
2023-05-24T22:02:10.148Z,17.33
2023-05-24T22:04:36.971Z,17.50
2023-05-24T22:07:03.877Z,16.30
2023-05-24T22:09:30.708Z,16.43
2023-05-24T22:11:57.510Z,13.90
2023-05-24T22:14:24.340Z,14.00
2023-05-24T22:16:51.331Z,18.17
2023-05-24T22:19:28.449Z,22.50
2023-05-24T22:22:05.113Z,16.57
2023-05-24T22:24:31.918Z,15.60
2023-05-24T22:27:01.461Z,15.27
2023-05-24T22:29:28.402Z,15.90
2023-05-24T22:31:55.344Z,15.00
2023-05-24T22:34:28.947Z,14.53
2023-05-24T22:36:57.728Z,18.07
2023-05-24T22:39:24.751Z,17.27
2023-05-24T22:41:52.966Z,17.73
2023-05-24T22:44:20.500Z,19.63
2023-05-24T22:46:49.997Z,17.43
2023-05-24T22:49:19.749Z,16.43
2023-05-24T22:51:48.603Z,17.77
2023-05-24T22:54:15.934Z,18.20
2023-05-24T22:56:43.902Z,17.90
2023-05-24T22:59:11.430Z,25.03
2023-05-24T23:01:38.726Z,20.27
2023-05-24T23:04:19.774Z,14.23
2023-05-24T23:06:48.211Z,14.00
2023-05-24T23:09:15.438Z,18.33
2023-05-24T23:11:43.136Z,15.40
2023-05-24T23:14:11.723Z,15.87
2023-05-24T23:16:47.027Z,12.93
2023-05-24T23:19:19.088Z,12.53
2023-05-24T23:21:46.641Z,17.30
2023-05-24T23:24:16.165Z,15.63
2023-05-24T23:26:43.347Z,18.93
2023-05-24T23:29:10.694Z,15.80
2023-05-24T23:31:37.953Z,17.70
2023-05-24T23:34:05.879Z,17.70
2023-05-24T23:36:32.813Z,20.93
2023-05-24T23:38:59.808Z,14.63
2023-05-24T23:41:26.785Z,14.40
2023-05-24T23:43:53.678Z,15.73
2023-05-24T23:46:20.675Z,17.10
2023-05-24T23:48:47.559Z,17.53
2023-05-24T23:51:14.568Z,16.97
2023-05-24T23:53:41.449Z,17.47
2023-05-24T23:56:08.578Z,18.67
2023-05-24T23:58:36.252Z,17.20
